createdAt,value
2022-10-29T00:04:58.028Z,20.62
2022-10-29T00:10:03.333Z,20.48
2022-10-29T00:15:07.575Z,20.36
2022-10-29T00:20:11.706Z,20.22
2022-10-29T00:25:17.042Z,20.00
2022-10-29T00:30:19.863Z,19.65
2022-10-29T00:35:24.110Z,19.04
2022-10-29T00:40:29.264Z,18.69
2022-10-29T00:45:32.919Z,18.52
2022-10-29T00:50:36.986Z,18.31
2022-10-29T00:55:42.232Z,18.06
2022-10-29T01:00:46.089Z,17.99
2022-10-29T01:05:50.444Z,18.07
2022-10-29T01:11:03.875Z,18.21
2022-10-29T01:16:18.725Z,17.68
2022-10-29T01:21:54.401Z,17.19
2022-10-29T01:27:40.562Z,16.82
2022-10-29T01:32:54.438Z,16.62
2022-10-29T01:38:12.144Z,16.50
2022-10-29T01:48:34.548Z,16.24
2022-10-29T01:53:39.806Z,15.99
2022-10-29T01:58:48.332Z,15.84
2022-10-29T02:04:03.153Z,15.74
2022-10-29T02:09:16.180Z,15.60
2022-10-29T02:14:26.594Z,15.36
2022-10-29T02:19:33.609Z,15.22
2022-10-29T02:24:37.152Z,15.22
2022-10-29T02:29:40.709Z,15.06
2022-10-29T02:34:45.855Z,14.91
2022-10-29T02:39:49.388Z,14.74
2022-10-29T02:44:53.613Z,14.70
2022-10-29T02:49:59.505Z,14.75
2022-10-29T02:55:02.292Z,14.63
2022-10-29T03:00:06.896Z,14.56
2022-10-29T03:05:12.213Z,14.48
2022-10-29T03:10:15.837Z,14.37
2022-10-29T03:15:19.377Z,14.15
2022-10-29T03:20:24.562Z,14.11
2022-10-29T03:25:28.121Z,13.94
2022-10-29T03:30:32.424Z,13.78
2022-10-29T03:35:37.673Z,13.71
2022-10-29T03:40:42.072Z,13.67
2022-10-29T03:45:45.631Z,13.53
2022-10-29T03:50:57.741Z,13.83
2022-10-29T03:56:01.316Z,13.91
2022-10-29T04:01:06.304Z,13.68
2022-10-29T04:06:16.052Z,13.28
2022-10-29T04:11:19.671Z,13.00
2022-10-29T04:16:23.265Z,12.93
2022-10-29T04:23:25.390Z,12.80
2022-10-29T04:32:15.577Z,12.71
2022-10-29T04:37:20.784Z,12.48
2022-10-29T04:42:24.351Z,12.43
2022-10-29T04:47:27.879Z,12.29
2022-10-29T04:52:33.070Z,12.30
2022-10-29T04:57:36.623Z,12.28
2022-10-29T05:02:40.146Z,12.31
2022-10-29T05:07:45.405Z,12.19
2022-10-29T05:12:48.931Z,12.13
2022-10-29T05:17:52.631Z,11.89
2022-10-29T05:23:02.604Z,11.90
2022-10-29T05:28:08.297Z,11.82
2022-10-29T05:33:13.328Z,11.73
2022-10-29T05:38:18.762Z,11.64
2022-10-29T05:43:22.291Z,11.57
2022-10-29T05:48:25.834Z,11.53
2022-10-29T05:53:31.922Z,11.53
2022-10-29T05:58:35.558Z,11.59
2022-10-29T06:03:39.446Z,11.33
2022-10-29T06:08:45.616Z,11.30
2022-10-29T06:13:49.894Z,11.31
2022-10-29T06:18:53.423Z,11.31
2022-10-29T06:23:58.580Z,11.17
2022-10-29T06:29:02.243Z,11.10
2022-10-29T06:34:05.895Z,11.16
2022-10-29T06:39:11.068Z,11.13
2022-10-29T06:44:14.603Z,11.03
2022-10-29T06:49:18.135Z,10.91
2022-10-29T06:54:24.319Z,10.87
2022-10-29T06:59:27.130Z,10.80
2022-10-29T07:04:30.703Z,10.71
2022-10-29T07:09:35.869Z,10.74
2022-10-29T07:14:39.430Z,10.64
2022-10-29T07:19:42.952Z,10.62
2022-10-29T07:24:48.131Z,10.43
2022-10-29T07:29:51.675Z,10.44
2022-10-29T07:34:55.247Z,10.26
2022-10-29T07:40:00.533Z,10.27
2022-10-29T07:45:04.279Z,10.26
2022-10-29T07:50:08.765Z,10.20
2022-10-29T07:55:16.550Z,10.13
2022-10-29T08:00:20.218Z,10.13
2022-10-29T08:05:24.292Z,10.00
2022-10-29T08:10:30.376Z,10.00
2022-10-29T08:15:34.741Z,9.88
2022-10-29T08:20:38.426Z,9.97
2022-10-29T08:25:43.770Z,10.00
2022-10-29T08:30:50.792Z,9.82
2022-10-29T08:35:54.354Z,9.76
2022-10-29T08:41:30.798Z,9.76
2022-10-29T08:46:44.701Z,9.72
2022-10-29T08:51:54.669Z,9.67
2022-10-29T08:57:05.260Z,9.54
2022-10-29T09:02:16.928Z,9.59
2022-10-29T09:07:35.398Z,9.61
2022-10-29T09:13:11.149Z,9.58
2022-10-29T09:18:30.632Z,9.52
2022-10-29T09:23:53.137Z,9.55
2022-10-29T09:29:14.636Z,9.41
2022-10-29T09:34:23.641Z,9.37
2022-10-29T09:39:34.329Z,9.31
2022-10-29T09:44:46.786Z,9.33
2022-10-29T09:50:05.380Z,9.23
2022-10-29T09:55:21.500Z,9.18
2022-10-29T10:00:29.839Z,9.17
2022-10-29T10:05:35.072Z,9.08
2022-10-29T10:10:50.593Z,9.10
2022-10-29T10:15:57.602Z,9.06
2022-10-29T10:21:04.463Z,9.04
2022-10-29T10:26:29.501Z,8.90
2022-10-29T10:31:34.661Z,8.88
2022-10-29T10:36:41.594Z,8.90
2022-10-29T10:41:45.208Z,8.88
2022-10-29T10:46:52.643Z,8.85
2022-10-29T10:51:58.648Z,8.81
2022-10-29T10:57:03.611Z,8.78
2022-10-29T11:02:21.387Z,8.71
2022-10-29T11:07:28.148Z,8.65
2022-10-29T11:12:37.608Z,8.69
2022-10-29T11:17:54.063Z,8.60
2022-10-29T11:23:22.970Z,8.70
2022-10-29T11:28:34.146Z,8.61
2022-10-29T11:33:47.763Z,8.59
2022-10-29T11:38:57.239Z,8.55
2022-10-29T11:44:00.860Z,8.46
2022-10-29T11:49:21.974Z,8.38
2022-10-29T11:54:46.181Z,8.40
2022-10-29T12:00:05.094Z,8.31
2022-10-29T12:05:20.181Z,8.29
2022-10-29T12:10:33.128Z,8.22
2022-10-29T12:15:42.177Z,8.19
2022-10-29T12:20:55.456Z,8.19
2022-10-29T12:26:08.013Z,8.12
2022-10-29T12:31:22.890Z,8.12
2022-10-29T12:36:39.329Z,8.15
2022-10-29T12:41:48.078Z,8.14
2022-10-29T12:47:00.163Z,8.17
2022-10-29T12:52:12.520Z,8.02
2022-10-29T12:57:30.367Z,8.03
2022-10-29T13:02:46.375Z,7.99
2022-10-29T13:08:18.860Z,7.93
2022-10-29T13:13:36.740Z,7.87
2022-10-29T13:18:50.092Z,7.90
2022-10-29T13:24:06.057Z,7.81
2022-10-29T13:29:09.572Z,7.71
2022-10-29T13:34:27.609Z,7.72
2022-10-29T13:39:32.804Z,7.70
2022-10-29T13:44:39.517Z,7.58
2022-10-29T13:49:45.874Z,7.59
2022-10-29T13:54:54.969Z,7.70
2022-10-29T14:00:04.308Z,7.93
2022-10-29T14:05:17.974Z,7.99
2022-10-29T14:10:27.666Z,7.99
2022-10-29T14:15:31.285Z,8.27
2022-10-29T14:20:34.922Z,9.30
2022-10-29T14:25:40.086Z,9.96
2022-10-29T14:30:44.057Z,10.31
2022-10-29T14:35:48.724Z,10.54
2022-10-29T14:40:53.908Z,10.34
2022-10-29T14:46:09.512Z,10.43
2022-10-29T14:51:20.236Z,10.71
2022-10-29T14:56:33.348Z,10.74
2022-10-29T15:01:47.221Z,10.82
2022-10-29T15:06:50.946Z,11.03
2022-10-29T15:12:04.248Z,11.41
2022-10-29T15:17:11.702Z,11.73
2022-10-29T15:22:21.589Z,11.49
2022-10-29T15:27:27.220Z,11.23
2022-10-29T15:32:31.638Z,11.50
2022-10-29T15:37:43.802Z,11.78
2022-10-29T15:42:49.326Z,12.02
2022-10-29T15:47:56.455Z,12.22
2022-10-29T15:53:01.799Z,12.61
2022-10-29T15:58:11.837Z,12.66
2022-10-29T16:03:16.788Z,12.96
2022-10-29T16:08:26.157Z,13.32
2022-10-29T16:13:33.114Z,13.73
2022-10-29T16:18:36.752Z,14.00
2022-10-29T16:23:40.475Z,14.29
2022-10-29T16:28:54.858Z,14.66
2022-10-29T16:34:00.178Z,14.99
2022-10-29T16:39:04.396Z,15.43
2022-10-29T16:44:09.769Z,15.84
2022-10-29T16:49:13.299Z,16.05
2022-10-29T16:54:16.973Z,16.23
2022-10-29T16:59:22.178Z,16.51
2022-10-29T17:04:25.808Z,16.82
2022-10-29T17:09:29.726Z,16.96
2022-10-29T17:14:35.017Z,17.36
2022-10-29T17:19:38.547Z,17.57
2022-10-29T17:24:42.097Z,17.92
2022-10-29T17:29:47.316Z,18.12
2022-10-29T17:34:51.110Z,18.21
2022-10-29T17:39:54.707Z,18.12
2022-10-29T17:44:59.889Z,18.30
2022-10-29T17:50:03.450Z,18.39
2022-10-29T17:55:07.913Z,18.47
2022-10-29T18:00:15.596Z,18.64
2022-10-29T18:05:19.728Z,18.71
2022-10-29T18:10:23.284Z,18.88
2022-10-29T18:15:28.560Z,19.60
2022-10-29T18:20:32.097Z,20.06
2022-10-29T18:25:35.634Z,20.39
2022-10-29T18:30:40.799Z,20.46
2022-10-29T18:35:44.331Z,20.23
2022-10-29T18:40:55.019Z,20.05
2022-10-29T18:46:01.793Z,19.94
2022-10-29T18:51:07.356Z,19.85
2022-10-29T18:56:10.944Z,20.01
2022-10-29T19:01:17.455Z,20.00
2022-10-29T19:06:21.441Z,20.14
2022-10-29T19:11:27.100Z,20.08
2022-10-29T19:16:33.385Z,20.41
2022-10-29T19:21:37.651Z,20.54
2022-10-29T19:26:41.568Z,20.70
2022-10-29T19:31:47.500Z,20.85
2022-10-29T19:36:51.087Z,20.83
2022-10-29T19:41:54.845Z,20.62
2022-10-29T19:47:00.039Z,20.80
2022-10-29T19:52:03.604Z,20.72
2022-10-29T19:57:07.245Z,20.51
2022-10-29T20:02:12.603Z,20.30
2022-10-29T20:07:15.600Z,20.14
2022-10-29T20:12:19.190Z,20.36
2022-10-29T20:17:24.373Z,20.56
2022-10-29T20:22:30.398Z,20.66
2022-10-29T20:27:33.939Z,20.67
2022-10-29T20:32:40.126Z,20.73
2022-10-29T20:37:43.689Z,20.99
2022-10-29T20:42:50.499Z,21.11
2022-10-29T20:47:56.080Z,21.14
2022-10-29T20:53:00.077Z,21.15
2022-10-29T20:58:03.714Z,21.30
2022-10-29T21:03:08.918Z,21.42
2022-10-29T21:08:12.506Z,21.39
2022-10-29T21:13:16.117Z,21.57
2022-10-29T21:18:21.334Z,21.84
2022-10-29T21:23:24.984Z,21.87
2022-10-29T21:28:28.558Z,21.72
2022-10-29T21:33:33.925Z,21.76
2022-10-29T21:38:37.784Z,21.64
2022-10-29T21:43:50.792Z,21.60
2022-10-29T21:48:55.271Z,21.65
2022-10-29T21:53:58.968Z,21.65
2022-10-29T21:59:04.209Z,21.62
2022-10-29T22:04:07.011Z,21.64
2022-10-29T22:09:10.661Z,21.75
2022-10-29T22:14:15.830Z,21.95
2022-10-29T22:19:19.369Z,21.81
2022-10-29T22:24:22.936Z,21.56
2022-10-29T22:29:28.130Z,21.41
2022-10-29T22:34:31.658Z,21.14
2022-10-29T22:39:37.780Z,21.06
2022-10-29T22:44:42.957Z,21.02
2022-10-29T22:49:46.500Z,20.87
2022-10-29T22:54:50.032Z,20.79
2022-10-29T22:59:55.267Z,20.72
2022-10-29T23:04:58.980Z,20.69
2022-10-29T23:10:02.557Z,20.71
2022-10-29T23:15:08.404Z,20.63
2022-10-29T23:20:12.198Z,20.54
2022-10-29T23:25:16.330Z,20.38
2022-10-29T23:30:21.540Z,20.54
2022-10-29T23:35:25.116Z,20.38
2022-10-29T23:40:28.642Z,20.45
2022-10-29T23:45:33.817Z,20.38
2022-10-29T23:50:37.535Z,20.32
2022-10-29T23:55:42.467Z,20.27
